sensor_id;sensor_type;location;lat;lon;timestamp;temperature;humidity
53962;DHT22;39868;53.398;6.564;2023-05-19T00:01:28;12.10;70.20
53962;DHT22;39868;53.398;6.564;2023-05-19T00:03:59;12.10;70.20
53962;DHT22;39868;53.398;6.564;2023-05-19T00:06:32;12.10;70.40
53962;DHT22;39868;53.398;6.564;2023-05-19T00:09:02;12.10;70.40
53962;DHT22;39868;53.398;6.564;2023-05-19T00:11:29;12.10;70.50
53962;DHT22;39868;53.398;6.564;2023-05-19T00:13:58;12.10;70.50
53962;DHT22;39868;53.398;6.564;2023-05-19T00:16:27;12.10;70.60
53962;DHT22;39868;53.398;6.564;2023-05-19T00:18:57;12.10;70.60
53962;DHT22;39868;53.398;6.564;2023-05-19T00:21:26;12.10;70.60
53962;DHT22;39868;53.398;6.564;2023-05-19T00:23:54;12.10;70.60
53962;DHT22;39868;53.398;6.564;2023-05-19T00:26:21;12.10;70.60
53962;DHT22;39868;53.398;6.564;2023-05-19T00:28:55;12.10;70.70
53962;DHT22;39868;53.398;6.564;2023-05-19T00:31:22;12.10;70.70
53962;DHT22;39868;53.398;6.564;2023-05-19T00:33:50;12.10;70.60
53962;DHT22;39868;53.398;6.564;2023-05-19T00:36:17;12.10;70.70
53962;DHT22;39868;53.398;6.564;2023-05-19T00:38:45;12.10;70.60
53962;DHT22;39868;53.398;6.564;2023-05-19T00:41:12;12.10;70.60
53962;DHT22;39868;53.398;6.564;2023-05-19T00:43:39;12.10;70.60
53962;DHT22;39868;53.398;6.564;2023-05-19T00:46:07;12.10;70.50
53962;DHT22;39868;53.398;6.564;2023-05-19T00:48:34;12.10;70.50
53962;DHT22;39868;53.398;6.564;2023-05-19T00:51:02;12.10;70.50
53962;DHT22;39868;53.398;6.564;2023-05-19T00:53:32;12.00;70.50
53962;DHT22;39868;53.398;6.564;2023-05-19T00:56:00;12.00;70.60
53962;DHT22;39868;53.398;6.564;2023-05-19T00:58:29;12.00;70.70
53962;DHT22;39868;53.398;6.564;2023-05-19T01:00:59;12.00;70.70
53962;DHT22;39868;53.398;6.564;2023-05-19T01:03:32;12.00;70.70
53962;DHT22;39868;53.398;6.564;2023-05-19T01:06:03;12.00;70.70
53962;DHT22;39868;53.398;6.564;2023-05-19T01:08:35;11.90;70.70
53962;DHT22;39868;53.398;6.564;2023-05-19T01:11:06;11.90;70.70
53962;DHT22;39868;53.398;6.564;2023-05-19T01:13:35;11.90;70.90
53962;DHT22;39868;53.398;6.564;2023-05-19T01:16:06;11.90;70.90
53962;DHT22;39868;53.398;6.564;2023-05-19T01:18:42;11.90;70.90
53962;DHT22;39868;53.398;6.564;2023-05-19T01:21:35;11.90;71.10
53962;DHT22;39868;53.398;6.564;2023-05-19T01:24:50;11.90;71.10
53962;DHT22;39868;53.398;6.564;2023-05-19T01:30:34;11.80;71.00
53962;DHT22;39868;53.398;6.564;2023-05-19T01:33:06;11.80;71.20
53962;DHT22;39868;53.398;6.564;2023-05-19T01:35:35;11.80;71.30
53962;DHT22;39868;53.398;6.564;2023-05-19T01:38:04;11.80;71.20
53962;DHT22;39868;53.398;6.564;2023-05-19T01:40:34;11.80;71.30
53962;DHT22;39868;53.398;6.564;2023-05-19T01:43:02;11.80;71.30
53962;DHT22;39868;53.398;6.564;2023-05-19T01:45:32;11.80;71.30
53962;DHT22;39868;53.398;6.564;2023-05-19T01:48:01;11.80;71.50
53962;DHT22;39868;53.398;6.564;2023-05-19T01:50:29;11.80;71.60
53962;DHT22;39868;53.398;6.564;2023-05-19T01:52:57;11.80;71.60
53962;DHT22;39868;53.398;6.564;2023-05-19T01:55:24;11.80;71.60
53962;DHT22;39868;53.398;6.564;2023-05-19T02:06:49;11.80;71.60
53962;DHT22;39868;53.398;6.564;2023-05-19T02:15:18;11.80;71.80
53962;DHT22;39868;53.398;6.564;2023-05-19T02:17:49;11.80;72.00
53962;DHT22;39868;53.398;6.564;2023-05-19T02:20:20;11.80;72.00
53962;DHT22;39868;53.398;6.564;2023-05-19T02:22:50;11.80;72.10
53962;DHT22;39868;53.398;6.564;2023-05-19T02:25:17;11.80;72.10
53962;DHT22;39868;53.398;6.564;2023-05-19T02:27:44;11.70;72.60
53962;DHT22;39868;53.398;6.564;2023-05-19T02:30:12;11.80;72.20
53962;DHT22;39868;53.398;6.564;2023-05-19T02:32:39;11.80;72.30
53962;DHT22;39868;53.398;6.564;2023-05-19T02:35:07;11.80;72.40
53962;DHT22;39868;53.398;6.564;2023-05-19T02:37:34;11.80;72.60
53962;DHT22;39868;53.398;6.564;2023-05-19T02:40:01;11.70;72.60
53962;DHT22;39868;53.398;6.564;2023-05-19T02:42:29;11.80;72.70
53962;DHT22;39868;53.398;6.564;2023-05-19T02:44:56;11.80;72.80
53962;DHT22;39868;53.398;6.564;2023-05-19T02:47:23;11.80;72.90
53962;DHT22;39868;53.398;6.564;2023-05-19T02:49:50;11.80;73.00
53962;DHT22;39868;53.398;6.564;2023-05-19T02:52:17;11.80;73.00
53962;DHT22;39868;53.398;6.564;2023-05-19T02:54:45;11.80;73.10
53962;DHT22;39868;53.398;6.564;2023-05-19T02:57:13;11.90;73.30
53962;DHT22;39868;53.398;6.564;2023-05-19T02:59:40;11.90;73.40
53962;DHT22;39868;53.398;6.564;2023-05-19T03:02:08;11.90;73.40
53962;DHT22;39868;53.398;6.564;2023-05-19T03:04:36;11.90;73.40
53962;DHT22;39868;53.398;6.564;2023-05-19T03:07:09;11.90;73.60
53962;DHT22;39868;53.398;6.564;2023-05-19T03:09:36;11.90;73.50
53962;DHT22;39868;53.398;6.564;2023-05-19T03:12:04;11.90;73.70
53962;DHT22;39868;53.398;6.564;2023-05-19T03:14:34;11.90;73.70
53962;DHT22;39868;53.398;6.564;2023-05-19T03:17:04;11.90;74.00
53962;DHT22;39868;53.398;6.564;2023-05-19T03:19:33;11.90;74.00
53962;DHT22;39868;53.398;6.564;2023-05-19T03:22:01;11.90;74.10
53962;DHT22;39868;53.398;6.564;2023-05-19T03:24:28;11.90;74.10
53962;DHT22;39868;53.398;6.564;2023-05-19T03:26:55;11.90;74.20
53962;DHT22;39868;53.398;6.564;2023-05-19T03:29:22;11.90;74.30
53962;DHT22;39868;53.398;6.564;2023-05-19T03:31:50;11.90;74.40
53962;DHT22;39868;53.398;6.564;2023-05-19T03:34:18;11.90;74.30
53962;DHT22;39868;53.398;6.564;2023-05-19T03:36:45;11.90;74.30
53962;DHT22;39868;53.398;6.564;2023-05-19T03:39:16;11.90;74.30
53962;DHT22;39868;53.398;6.564;2023-05-19T03:41:45;11.90;74.30
53962;DHT22;39868;53.398;6.564;2023-05-19T03:44:13;11.90;74.30
53962;DHT22;39868;53.398;6.564;2023-05-19T03:46:40;11.90;74.30
53962;DHT22;39868;53.398;6.564;2023-05-19T03:49:07;11.90;74.10
53962;DHT22;39868;53.398;6.564;2023-05-19T03:51:57;11.90;74.00
53962;DHT22;39868;53.398;6.564;2023-05-19T03:54:46;11.90;73.80
53962;DHT22;39868;53.398;6.564;2023-05-19T03:57:13;11.90;73.60
53962;DHT22;39868;53.398;6.564;2023-05-19T03:59:40;11.90;73.60
53962;DHT22;39868;53.398;6.564;2023-05-19T04:02:08;11.80;73.50
53962;DHT22;39868;53.398;6.564;2023-05-19T04:04:35;11.80;73.50
53962;DHT22;39868;53.398;6.564;2023-05-19T04:07:04;11.80;73.70
53962;DHT22;39868;53.398;6.564;2023-05-19T04:09:31;11.80;73.80
53962;DHT22;39868;53.398;6.564;2023-05-19T04:12:01;11.80;73.90
53962;DHT22;39868;53.398;6.564;2023-05-19T04:14:31;11.80;73.90
53962;DHT22;39868;53.398;6.564;2023-05-19T04:16:58;11.80;73.90
53962;DHT22;39868;53.398;6.564;2023-05-19T04:19:26;11.80;73.90
53962;DHT22;39868;53.398;6.564;2023-05-19T04:21:54;11.80;73.90
53962;DHT22;39868;53.398;6.564;2023-05-19T04:24:21;11.90;73.90
53962;DHT22;39868;53.398;6.564;2023-05-19T04:26:48;11.90;74.00
53962;DHT22;39868;53.398;6.564;2023-05-19T04:29:17;11.90;73.90
53962;DHT22;39868;53.398;6.564;2023-05-19T04:31:45;11.90;74.00
53962;DHT22;39868;53.398;6.564;2023-05-19T04:34:13;11.90;74.00
53962;DHT22;39868;53.398;6.564;2023-05-19T04:36:40;11.90;74.00
53962;DHT22;39868;53.398;6.564;2023-05-19T04:39:08;11.90;74.00
53962;DHT22;39868;53.398;6.564;2023-05-19T04:41:41;11.90;74.00
53962;DHT22;39868;53.398;6.564;2023-05-19T04:44:11;11.90;73.90
53962;DHT22;39868;53.398;6.564;2023-05-19T04:46:40;12.00;74.00
53962;DHT22;39868;53.398;6.564;2023-05-19T04:49:08;12.00;74.00
53962;DHT22;39868;53.398;6.564;2023-05-19T04:51:38;12.00;74.10
53962;DHT22;39868;53.398;6.564;2023-05-19T04:54:08;12.00;74.10
53962;DHT22;39868;53.398;6.564;2023-05-19T04:56:36;12.00;74.10
53962;DHT22;39868;53.398;6.564;2023-05-19T04:59:04;12.00;74.20
53962;DHT22;39868;53.398;6.564;2023-05-19T05:01:32;12.10;74.30
53962;DHT22;39868;53.398;6.564;2023-05-19T05:04:00;12.10;74.40
53962;DHT22;39868;53.398;6.564;2023-05-19T05:06:29;12.20;74.50
53962;DHT22;39868;53.398;6.564;2023-05-19T05:08:58;12.20;74.60
53962;DHT22;39868;53.398;6.564;2023-05-19T05:11:26;12.30;74.70
53962;DHT22;39868;53.398;6.564;2023-05-19T05:13:55;12.30;74.80
53962;DHT22;39868;53.398;6.564;2023-05-19T05:16:28;12.30;74.90
53962;DHT22;39868;53.398;6.564;2023-05-19T05:18:57;12.40;75.00
53962;DHT22;39868;53.398;6.564;2023-05-19T05:21:26;12.50;75.20
53962;DHT22;39868;53.398;6.564;2023-05-19T05:23:54;12.50;75.30
53962;DHT22;39868;53.398;6.564;2023-05-19T05:26:29;12.60;75.40
53962;DHT22;39868;53.398;6.564;2023-05-19T05:28:56;12.70;75.60
53962;DHT22;39868;53.398;6.564;2023-05-19T05:31:24;12.70;75.60
53962;DHT22;39868;53.398;6.564;2023-05-19T05:33:52;12.80;75.70
53962;DHT22;39868;53.398;6.564;2023-05-19T05:36:23;12.90;75.80
53962;DHT22;39868;53.398;6.564;2023-05-19T05:38:50;13.00;75.90
53962;DHT22;39868;53.398;6.564;2023-05-19T05:41:17;13.10;75.90
53962;DHT22;39868;53.398;6.564;2023-05-19T05:43:47;13.10;76.00
53962;DHT22;39868;53.398;6.564;2023-05-19T05:46:15;13.20;76.10
53962;DHT22;39868;53.398;6.564;2023-05-19T05:48:42;13.30;76.20
53962;DHT22;39868;53.398;6.564;2023-05-19T05:51:10;13.40;76.20
53962;DHT22;39868;53.398;6.564;2023-05-19T05:53:40;13.50;76.30
53962;DHT22;39868;53.398;6.564;2023-05-19T05:56:10;13.60;76.40
53962;DHT22;39868;53.398;6.564;2023-05-19T05:58:44;13.60;76.30
53962;DHT22;39868;53.398;6.564;2023-05-19T06:01:11;13.70;76.30
53962;DHT22;39868;53.398;6.564;2023-05-19T06:03:41;13.80;76.30
53962;DHT22;39868;53.398;6.564;2023-05-19T06:06:13;13.90;76.40
53962;DHT22;39868;53.398;6.564;2023-05-19T06:08:40;14.00;76.30
53962;DHT22;39868;53.398;6.564;2023-05-19T06:11:07;14.10;76.30
53962;DHT22;39868;53.398;6.564;2023-05-19T06:13:37;14.10;76.30
53962;DHT22;39868;53.398;6.564;2023-05-19T06:16:07;14.20;76.40
53962;DHT22;39868;53.398;6.564;2023-05-19T06:18:39;14.30;76.30
53962;DHT22;39868;53.398;6.564;2023-05-19T06:21:07;14.40;76.20
53962;DHT22;39868;53.398;6.564;2023-05-19T06:23:36;14.50;76.20
53962;DHT22;39868;53.398;6.564;2023-05-19T06:26:06;14.60;76.20
53962;DHT22;39868;53.398;6.564;2023-05-19T06:28:33;14.70;76.10
53962;DHT22;39868;53.398;6.564;2023-05-19T06:31:01;14.80;75.90
53962;DHT22;39868;53.398;6.564;2023-05-19T06:33:43;14.80;75.80
53962;DHT22;39868;53.398;6.564;2023-05-19T06:36:10;14.90;75.80
53962;DHT22;39868;53.398;6.564;2023-05-19T06:38:39;15.00;75.70
53962;DHT22;39868;53.398;6.564;2023-05-19T06:41:07;15.10;75.60
53962;DHT22;39868;53.398;6.564;2023-05-19T06:43:35;15.10;75.60
53962;DHT22;39868;53.398;6.564;2023-05-19T06:46:03;15.20;75.40
53962;DHT22;39868;53.398;6.564;2023-05-19T06:48:32;15.30;75.00
53962;DHT22;39868;53.398;6.564;2023-05-19T06:50:59;15.30;74.80
53962;DHT22;39868;53.398;6.564;2023-05-19T06:53:27;15.40;74.70
53962;DHT22;39868;53.398;6.564;2023-05-19T06:55:56;15.40;74.50
53962;DHT22;39868;53.398;6.564;2023-05-19T06:58:29;15.50;74.20
53962;DHT22;39868;53.398;6.564;2023-05-19T07:00:58;15.60;73.90
53962;DHT22;39868;53.398;6.564;2023-05-19T07:03:29;15.60;73.80
53962;DHT22;39868;53.398;6.564;2023-05-19T07:05:58;15.70;74.50
53962;DHT22;39868;53.398;6.564;2023-05-19T07:08:27;15.80;74.00
53962;DHT22;39868;53.398;6.564;2023-05-19T07:10:54;15.90;74.20
53962;DHT22;39868;53.398;6.564;2023-05-19T07:13:21;15.90;74.30
53962;DHT22;39868;53.398;6.564;2023-05-19T07:15:53;16.00;73.90
53962;DHT22;39868;53.398;6.564;2023-05-19T07:18:24;16.10;73.80
53962;DHT22;39868;53.398;6.564;2023-05-19T07:20:52;16.10;73.30
53962;DHT22;39868;53.398;6.564;2023-05-19T07:23:20;16.20;73.50
53962;DHT22;39868;53.398;6.564;2023-05-19T07:25:47;16.30;72.90
53962;DHT22;39868;53.398;6.564;2023-05-19T07:28:14;16.30;72.80
53962;DHT22;39868;53.398;6.564;2023-05-19T07:30:42;16.40;72.40
53962;DHT22;39868;53.398;6.564;2023-05-19T07:33:10;16.40;72.10
53962;DHT22;39868;53.398;6.564;2023-05-19T07:35:37;16.50;72.00
53962;DHT22;39868;53.398;6.564;2023-05-19T07:38:04;16.60;71.50
53962;DHT22;39868;53.398;6.564;2023-05-19T07:40:33;16.70;71.50
53962;DHT22;39868;53.398;6.564;2023-05-19T07:43:00;16.70;71.40
53962;DHT22;39868;53.398;6.564;2023-05-19T07:45:28;16.80;70.70
53962;DHT22;39868;53.398;6.564;2023-05-19T07:47:55;16.80;70.50
53962;DHT22;39868;53.398;6.564;2023-05-19T07:50:23;16.80;70.70
53962;DHT22;39868;53.398;6.564;2023-05-19T07:52:50;16.90;70.90
53962;DHT22;39868;53.398;6.564;2023-05-19T07:55:17;17.00;70.60
53962;DHT22;39868;53.398;6.564;2023-05-19T07:57:45;17.00;70.40
53962;DHT22;39868;53.398;6.564;2023-05-19T08:00:12;17.10;70.30
53962;DHT22;39868;53.398;6.564;2023-05-19T08:02:40;17.10;69.80
53962;DHT22;39868;53.398;6.564;2023-05-19T08:05:08;17.20;69.90
53962;DHT22;39868;53.398;6.564;2023-05-19T08:07:36;17.30;70.40
53962;DHT22;39868;53.398;6.564;2023-05-19T08:10:04;17.30;69.60
53962;DHT22;39868;53.398;6.564;2023-05-19T08:12:31;17.40;68.70
53962;DHT22;39868;53.398;6.564;2023-05-19T08:14:58;17.50;68.40
53962;DHT22;39868;53.398;6.564;2023-05-19T08:17:27;17.50;67.90
53962;DHT22;39868;53.398;6.564;2023-05-19T08:19:54;17.60;67.30
53962;DHT22;39868;53.398;6.564;2023-05-19T08:22:21;17.60;67.10
53962;DHT22;39868;53.398;6.564;2023-05-19T08:24:49;17.70;67.40
53962;DHT22;39868;53.398;6.564;2023-05-19T08:27:17;17.70;66.60
53962;DHT22;39868;53.398;6.564;2023-05-19T08:29:45;17.70;66.50
53962;DHT22;39868;53.398;6.564;2023-05-19T08:32:12;17.80;65.00
53962;DHT22;39868;53.398;6.564;2023-05-19T08:34:39;17.80;64.80
53962;DHT22;39868;53.398;6.564;2023-05-19T08:37:07;17.80;65.20
53962;DHT22;39868;53.398;6.564;2023-05-19T08:39:34;17.80;65.00
53962;DHT22;39868;53.398;6.564;2023-05-19T08:42:02;17.90;65.10
53962;DHT22;39868;53.398;6.564;2023-05-19T08:44:29;17.90;65.00
53962;DHT22;39868;53.398;6.564;2023-05-19T08:47:02;17.90;65.60
53962;DHT22;39868;53.398;6.564;2023-05-19T08:49:34;18.00;64.90
53962;DHT22;39868;53.398;6.564;2023-05-19T08:54:51;18.10;61.40
53962;DHT22;39868;53.398;6.564;2023-05-19T08:57:21;18.20;61.40
53962;DHT22;39868;53.398;6.564;2023-05-19T08:59:50;18.20;61.00
53962;DHT22;39868;53.398;6.564;2023-05-19T09:02:18;18.20;61.00
53962;DHT22;39868;53.398;6.564;2023-05-19T09:04:46;18.10;61.40
53962;DHT22;39868;53.398;6.564;2023-05-19T09:07:14;18.20;61.50
53962;DHT22;39868;53.398;6.564;2023-05-19T09:09:42;18.20;61.20
53962;DHT22;39868;53.398;6.564;2023-05-19T09:12:10;18.20;60.30
53962;DHT22;39868;53.398;6.564;2023-05-19T09:14:37;18.20;60.80
53962;DHT22;39868;53.398;6.564;2023-05-19T09:17:05;18.20;61.20
53962;DHT22;39868;53.398;6.564;2023-05-19T09:19:33;18.20;61.20
53962;DHT22;39868;53.398;6.564;2023-05-19T09:22:01;18.20;60.50
53962;DHT22;39868;53.398;6.564;2023-05-19T09:24:32;18.30;60.60
53962;DHT22;39868;53.398;6.564;2023-05-19T09:27:00;18.30;60.20
53962;DHT22;39868;53.398;6.564;2023-05-19T09:29:28;18.30;59.70
53962;DHT22;39868;53.398;6.564;2023-05-19T09:31:55;18.30;60.30
53962;DHT22;39868;53.398;6.564;2023-05-19T09:34:32;18.30;60.00
53962;DHT22;39868;53.398;6.564;2023-05-19T09:36:59;18.30;60.20
53962;DHT22;39868;53.398;6.564;2023-05-19T09:39:26;18.30;59.10
53962;DHT22;39868;53.398;6.564;2023-05-19T09:41:55;18.30;59.90
53962;DHT22;39868;53.398;6.564;2023-05-19T09:44:25;18.30;59.60
53962;DHT22;39868;53.398;6.564;2023-05-19T09:46:57;18.30;60.20
53962;DHT22;39868;53.398;6.564;2023-05-19T09:49:28;18.30;59.60
53962;DHT22;39868;53.398;6.564;2023-05-19T09:52:06;18.40;59.30
53962;DHT22;39868;53.398;6.564;2023-05-19T09:54:33;18.40;59.50
53962;DHT22;39868;53.398;6.564;2023-05-19T09:57:02;18.40;59.40
53962;DHT22;39868;53.398;6.564;2023-05-19T09:59:31;18.40;58.70
53962;DHT22;39868;53.398;6.564;2023-05-19T10:02:00;18.40;58.50
53962;DHT22;39868;53.398;6.564;2023-05-19T10:04:29;18.40;58.60
53962;DHT22;39868;53.398;6.564;2023-05-19T10:06:58;18.40;58.00
53962;DHT22;39868;53.398;6.564;2023-05-19T10:09:32;18.50;57.00
53962;DHT22;39868;53.398;6.564;2023-05-19T10:12:00;18.50;57.00
53962;DHT22;39868;53.398;6.564;2023-05-19T10:14:28;18.50;57.50
53962;DHT22;39868;53.398;6.564;2023-05-19T10:16:57;18.50;56.90
53962;DHT22;39868;53.398;6.564;2023-05-19T10:19:28;18.50;57.60
53962;DHT22;39868;53.398;6.564;2023-05-19T10:21:56;18.50;57.20
53962;DHT22;39868;53.398;6.564;2023-05-19T10:24:23;18.50;57.00
53962;DHT22;39868;53.398;6.564;2023-05-19T10:27:04;18.60;57.20
53962;DHT22;39868;53.398;6.564;2023-05-19T10:29:44;18.60;57.90
53962;DHT22;39868;53.398;6.564;2023-05-19T10:32:19;18.60;57.30
53962;DHT22;39868;53.398;6.564;2023-05-19T10:35:27;18.60;56.80
53962;DHT22;39868;53.398;6.564;2023-05-19T10:41:09;18.70;57.00
53962;DHT22;39868;53.398;6.564;2023-05-19T10:46:16;18.70;55.00
53962;DHT22;39868;53.398;6.564;2023-05-19T10:48:44;18.70;55.60
53962;DHT22;39868;53.398;6.564;2023-05-19T10:51:13;18.70;54.80
53962;DHT22;39868;53.398;6.564;2023-05-19T10:53:41;18.70;54.70
53962;DHT22;39868;53.398;6.564;2023-05-19T10:56:29;18.70;54.40
53962;DHT22;39868;53.398;6.564;2023-05-19T10:58:59;18.70;54.50
53962;DHT22;39868;53.398;6.564;2023-05-19T11:01:31;18.70;55.00
53962;DHT22;39868;53.398;6.564;2023-05-19T11:04:06;18.70;54.10
53962;DHT22;39868;53.398;6.564;2023-05-19T11:06:35;18.60;55.00
53962;DHT22;39868;53.398;6.564;2023-05-19T11:09:33;18.60;54.00
53962;DHT22;39868;53.398;6.564;2023-05-19T11:12:07;18.60;54.50
53962;DHT22;39868;53.398;6.564;2023-05-19T11:14:36;18.60;54.00
53962;DHT22;39868;53.398;6.564;2023-05-19T11:17:03;18.50;54.60
53962;DHT22;39868;53.398;6.564;2023-05-19T11:19:38;18.50;54.80
53962;DHT22;39868;53.398;6.564;2023-05-19T11:22:11;18.50;54.90
53962;DHT22;39868;53.398;6.564;2023-05-19T11:24:45;18.50;55.60
53962;DHT22;39868;53.398;6.564;2023-05-19T11:27:30;18.50;55.00
53962;DHT22;39868;53.398;6.564;2023-05-19T11:30:00;18.60;55.10
53962;DHT22;39868;53.398;6.564;2023-05-19T11:32:33;18.60;53.80
53962;DHT22;39868;53.398;6.564;2023-05-19T11:35:01;18.60;53.40
53962;DHT22;39868;53.398;6.564;2023-05-19T11:37:31;18.70;54.20
53962;DHT22;39868;53.398;6.564;2023-05-19T11:40:04;18.70;54.70
53962;DHT22;39868;53.398;6.564;2023-05-19T11:42:35;18.70;55.00
53962;DHT22;39868;53.398;6.564;2023-05-19T11:45:04;18.70;55.40
53962;DHT22;39868;53.398;6.564;2023-05-19T11:47:32;18.80;56.20
53962;DHT22;39868;53.398;6.564;2023-05-19T11:50:13;18.80;56.00
53962;DHT22;39868;53.398;6.564;2023-05-19T11:52:43;18.90;56.10
53962;DHT22;39868;53.398;6.564;2023-05-19T11:55:18;18.90;57.60
53962;DHT22;39868;53.398;6.564;2023-05-19T12:00:35;19.00;56.30
53962;DHT22;39868;53.398;6.564;2023-05-19T12:03:06;19.10;57.10
53962;DHT22;39868;53.398;6.564;2023-05-19T12:05:43;19.10;57.60
53962;DHT22;39868;53.398;6.564;2023-05-19T12:08:13;19.20;56.90
53962;DHT22;39868;53.398;6.564;2023-05-19T12:10:40;19.20;56.80
53962;DHT22;39868;53.398;6.564;2023-05-19T12:13:07;19.30;57.80
53962;DHT22;39868;53.398;6.564;2023-05-19T12:15:36;19.30;56.90
53962;DHT22;39868;53.398;6.564;2023-05-19T12:18:03;19.40;57.70
53962;DHT22;39868;53.398;6.564;2023-05-19T12:20:31;19.40;57.50
53962;DHT22;39868;53.398;6.564;2023-05-19T12:23:02;19.40;56.90
53962;DHT22;39868;53.398;6.564;2023-05-19T12:25:30;19.50;57.10
53962;DHT22;39868;53.398;6.564;2023-05-19T12:27:59;19.50;56.70
53962;DHT22;39868;53.398;6.564;2023-05-19T12:30:30;19.50;57.00
53962;DHT22;39868;53.398;6.564;2023-05-19T12:32:58;19.50;57.00
53962;DHT22;39868;53.398;6.564;2023-05-19T12:35:29;19.50;57.70
53962;DHT22;39868;53.398;6.564;2023-05-19T12:38:02;19.50;57.70
53962;DHT22;39868;53.398;6.564;2023-05-19T12:40:31;19.40;58.00
53962;DHT22;39868;53.398;6.564;2023-05-19T12:42:59;19.40;57.80
53962;DHT22;39868;53.398;6.564;2023-05-19T12:45:26;19.40;57.40
53962;DHT22;39868;53.398;6.564;2023-05-19T12:47:54;19.40;57.80
53962;DHT22;39868;53.398;6.564;2023-05-19T12:50:29;19.40;57.40
53962;DHT22;39868;53.398;6.564;2023-05-19T12:52:57;19.40;58.10
53962;DHT22;39868;53.398;6.564;2023-05-19T12:55:25;19.40;58.10
53962;DHT22;39868;53.398;6.564;2023-05-19T12:57:53;19.50;57.50
53962;DHT22;39868;53.398;6.564;2023-05-19T13:00:25;19.60;58.00
53962;DHT22;39868;53.398;6.564;2023-05-19T13:03:04;19.60;58.40
53962;DHT22;39868;53.398;6.564;2023-05-19T13:05:33;19.70;58.10
53962;DHT22;39868;53.398;6.564;2023-05-19T13:08:12;19.70;57.80
53962;DHT22;39868;53.398;6.564;2023-05-19T13:10:41;19.80;58.40
53962;DHT22;39868;53.398;6.564;2023-05-19T13:13:09;19.90;58.90
53962;DHT22;39868;53.398;6.564;2023-05-19T13:15:42;19.90;58.70
53962;DHT22;39868;53.398;6.564;2023-05-19T13:18:10;19.90;58.20
53962;DHT22;39868;53.398;6.564;2023-05-19T13:20:39;20.00;58.70
53962;DHT22;39868;53.398;6.564;2023-05-19T13:23:09;20.00;58.80
53962;DHT22;39868;53.398;6.564;2023-05-19T13:25:36;20.10;58.10
53962;DHT22;39868;53.398;6.564;2023-05-19T13:28:04;20.20;57.40
53962;DHT22;39868;53.398;6.564;2023-05-19T13:30:33;20.20;56.90
53962;DHT22;39868;53.398;6.564;2023-05-19T13:33:01;20.20;56.70
53962;DHT22;39868;53.398;6.564;2023-05-19T13:35:29;20.20;56.90
53962;DHT22;39868;53.398;6.564;2023-05-19T13:38:07;20.20;56.60
53962;DHT22;39868;53.398;6.564;2023-05-19T13:40:37;20.10;57.10
53962;DHT22;39868;53.398;6.564;2023-05-19T13:43:06;20.10;57.30
53962;DHT22;39868;53.398;6.564;2023-05-19T13:45:34;20.10;57.40
53962;DHT22;39868;53.398;6.564;2023-05-19T13:48:02;20.20;57.20
53962;DHT22;39868;53.398;6.564;2023-05-19T13:50:29;20.20;57.60
53962;DHT22;39868;53.398;6.564;2023-05-19T13:52:57;20.30;57.10
53962;DHT22;39868;53.398;6.564;2023-05-19T13:55:24;20.30;57.10
53962;DHT22;39868;53.398;6.564;2023-05-19T13:57:53;20.20;56.70
53962;DHT22;39868;53.398;6.564;2023-05-19T14:00:20;20.20;56.60
53962;DHT22;39868;53.398;6.564;2023-05-19T14:02:47;20.20;57.30
53962;DHT22;39868;53.398;6.564;2023-05-19T14:05:15;20.20;57.00
53962;DHT22;39868;53.398;6.564;2023-05-19T14:07:42;20.20;57.30
53962;DHT22;39868;53.398;6.564;2023-05-19T14:10:10;20.20;56.00
53962;DHT22;39868;53.398;6.564;2023-05-19T14:12:37;20.20;56.70
53962;DHT22;39868;53.398;6.564;2023-05-19T14:15:25;20.20;56.50
53962;DHT22;39868;53.398;6.564;2023-05-19T14:17:52;20.20;56.80
53962;DHT22;39868;53.398;6.564;2023-05-19T14:20:20;20.20;56.40
53962;DHT22;39868;53.398;6.564;2023-05-19T14:22:47;20.20;56.70
53962;DHT22;39868;53.398;6.564;2023-05-19T14:25:14;20.20;56.10
53962;DHT22;39868;53.398;6.564;2023-05-19T14:27:42;20.20;56.80
53962;DHT22;39868;53.398;6.564;2023-05-19T14:30:09;20.20;56.50
53962;DHT22;39868;53.398;6.564;2023-05-19T14:32:36;20.20;56.90
53962;DHT22;39868;53.398;6.564;2023-05-19T14:35:04;20.20;56.20
53962;DHT22;39868;53.398;6.564;2023-05-19T14:37:31;20.20;56.40
53962;DHT22;39868;53.398;6.564;2023-05-19T14:39:59;20.20;56.70
53962;DHT22;39868;53.398;6.564;2023-05-19T14:42:26;20.20;56.70
53962;DHT22;39868;53.398;6.564;2023-05-19T14:44:53;20.20;56.50
53962;DHT22;39868;53.398;6.564;2023-05-19T14:47:20;20.30;56.60
53962;DHT22;39868;53.398;6.564;2023-05-19T14:49:48;20.30;56.40
53962;DHT22;39868;53.398;6.564;2023-05-19T14:52:15;20.30;56.40
53962;DHT22;39868;53.398;6.564;2023-05-19T14:54:43;20.30;56.10
53962;DHT22;39868;53.398;6.564;2023-05-19T14:57:10;20.40;56.60
53962;DHT22;39868;53.398;6.564;2023-05-19T14:59:38;20.40;56.40
53962;DHT22;39868;53.398;6.564;2023-05-19T15:02:05;20.30;56.20
53962;DHT22;39868;53.398;6.564;2023-05-19T15:04:33;20.30;56.30
53962;DHT22;39868;53.398;6.564;2023-05-19T15:07:01;20.20;56.70
53962;DHT22;39868;53.398;6.564;2023-05-19T15:09:36;20.20;57.50
53962;DHT22;39868;53.398;6.564;2023-05-19T15:12:04;20.20;56.80
53962;DHT22;39868;53.398;6.564;2023-05-19T15:14:31;20.30;56.10
53962;DHT22;39868;53.398;6.564;2023-05-19T15:17:01;20.20;56.10
53962;DHT22;39868;53.398;6.564;2023-05-19T15:19:29;20.20;56.10
53962;DHT22;39868;53.398;6.564;2023-05-19T15:21:56;20.30;56.20
53962;DHT22;39868;53.398;6.564;2023-05-19T15:24:23;20.20;56.40
53962;DHT22;39868;53.398;6.564;2023-05-19T15:26:51;20.30;56.60
53962;DHT22;39868;53.398;6.564;2023-05-19T15:29:18;20.20;56.70
53962;DHT22;39868;53.398;6.564;2023-05-19T15:31:51;20.30;56.80
53962;DHT22;39868;53.398;6.564;2023-05-19T15:34:19;20.30;56.40
53962;DHT22;39868;53.398;6.564;2023-05-19T15:36:47;20.30;56.50
53962;DHT22;39868;53.398;6.564;2023-05-19T15:39:14;20.30;56.70
53962;DHT22;39868;53.398;6.564;2023-05-19T15:41:41;20.30;56.90
53962;DHT22;39868;53.398;6.564;2023-05-19T15:44:09;20.40;56.30
53962;DHT22;39868;53.398;6.564;2023-05-19T15:46:36;20.40;56.20
53962;DHT22;39868;53.398;6.564;2023-05-19T15:49:03;20.50;55.80
53962;DHT22;39868;53.398;6.564;2023-05-19T15:51:32;20.50;55.90
53962;DHT22;39868;53.398;6.564;2023-05-19T15:54:02;20.50;55.80
53962;DHT22;39868;53.398;6.564;2023-05-19T15:56:29;20.50;55.40
53962;DHT22;39868;53.398;6.564;2023-05-19T15:58:57;20.40;55.30
53962;DHT22;39868;53.398;6.564;2023-05-19T16:01:24;20.40;55.20
53962;DHT22;39868;53.398;6.564;2023-05-19T16:03:52;20.40;55.50
53962;DHT22;39868;53.398;6.564;2023-05-19T16:06:19;20.30;55.20
53962;DHT22;39868;53.398;6.564;2023-05-19T16:08:47;20.30;54.80
53962;DHT22;39868;53.398;6.564;2023-05-19T16:11:14;20.30;54.90
53962;DHT22;39868;53.398;6.564;2023-05-19T16:13:41;20.30;54.70